Time;durP1;ratioP1;P1;durP2;ratioP2;P2;SDS_P1;SDS_P2;PMS_P1;PMS_P2;Temp;Humidity;BMP_temperature;BMP_pressure;BME280_temperature;BME280_humidity;BME280_pressure;Samples;Min_cycle;Max_cycle;Signal;HPM_P1;HPM_P2
2024/04/14 00:00:11;;;;;;;;;;;;;;;17.57;47.38;101413.25;5349976;26;1208;-52
2024/04/14 00:02:37;;;;;;;;;;;;;;;17.06;47.51;101426.59;5349868;26;1270;-53
2024/04/14 00:05:03;;;;;;;;;;;;;;;16.89;46.71;101421.22;5350240;26;1151;-54
2024/04/14 00:07:28;;;;;;;;;;;;;;;16.70;46.33;101418.78;5349671;26;1112;-55
2024/04/14 00:09:54;;;;;;;;;;;;;;;16.55;45.75;101415.88;5350005;26;1172;-53
2024/04/14 00:12:19;;;;;;;;;;;;;;;16.76;45.89;101423.25;5350121;26;1263;-54
2024/04/14 00:14:45;;;;;;;;;;;;;;;17.22;47.20;101414.66;5326913;26;1164;-52
2024/04/14 00:17:10;;;;;;;;;;;;;;;16.81;47.31;101418.91;5350276;26;3020;-53
2024/04/14 00:19:36;;;;;;;;;;;;;;;16.72;46.96;101416.63;5349459;26;1246;-55
2024/04/14 00:22:01;;;;;;;;;;;;;;;17.84;47.27;101414.22;5349483;26;976;-55
2024/04/14 00:24:27;;;;;;;;;;;;;;;16.99;48.05;101426.78;5349974;26;1210;-53
2024/04/14 00:26:52;;;;;;;;;;;;;;;16.73;47.42;101410.06;5349751;26;1204;-52
2024/04/14 00:29:18;;;;;;;;;;;;;;;16.70;47.25;101418.78;5350037;26;1330;-53
2024/04/14 00:31:44;;;;;;;;;;;;;;;17.53;47.57;101422.28;5329840;26;1169;-54
2024/04/14 00:34:10;;;;;;;;;;;;;;;16.87;47.64;101418.69;5349571;26;1180;-53
2024/04/14 00:36:36;;;;;;;;;;;;;;;16.78;47.04;101425.75;5349565;26;1419;-54
2024/04/14 00:39:01;;;;;;;;;;;;;;;16.71;46.13;101425.13;5349708;26;1866;-54
2024/04/14 00:41:27;;;;;;;;;;;;;;;17.58;46.93;101422.31;5349887;26;1215;-53
2024/04/14 00:43:54;;;;;;;;;;;;;;;16.92;48.10;101415.19;5349577;26;1195;-51
2024/04/14 00:46:19;;;;;;;;;;;;;;;16.85;46.94;101431.84;5349151;26;2771;-54
2024/04/14 00:48:45;;;;;;;;;;;;;;;16.59;46.43;101426.09;5349786;26;1309;-54
2024/04/14 00:51:10;;;;;;;;;;;;;;;17.88;46.98;101426.34;5349543;26;1163;-53
2024/04/14 00:53:36;;;;;;;;;;;;;;;17.10;47.51;101425.78;5349569;26;1370;-55
2024/04/14 00:56:02;;;;;;;;;;;;;;;16.89;46.91;101426.72;5313512;27;1235;-55
2024/04/14 00:58:27;;;;;;;;;;;;;;;17.23;47.32;101412.72;5318106;26;1826;-54
2024/04/14 01:00:53;;;;;;;;;;;;;;;17.10;47.72;101423.06;5349529;26;1584;-53
2024/04/14 01:03:18;;;;;;;;;;;;;;;16.89;47.11;101423.97;5349246;26;1196;-55
2024/04/14 01:05:44;;;;;;;;;;;;;;;16.65;46.43;101416.00;5349303;26;1137;-54
2024/04/14 01:08:09;;;;;;;;;;;;;;;16.54;46.02;101411.50;5349091;26;1243;-54
2024/04/14 01:10:35;;;;;;;;;;;;;;;17.52;46.95;101406.91;5348886;26;969;-54
2024/04/14 01:13:02;;;;;;;;;;;;;;;16.90;47.25;101406.38;5349253;26;1294;-55
2024/04/14 01:15:27;;;;;;;;;;;;;;;18.35;46.71;101405.41;5349477;26;1316;-54
2024/04/14 01:17:53;;;;;;;;;;;;;;;17.69;47.95;101392.97;5349416;26;2636;-53
2024/04/14 01:20:18;;;;;;;;;;;;;;;17.19;48.10;101408.84;5350535;26;1291;-53
2024/04/14 01:22:43;;;;;;;;;;;;;;;16.98;47.20;101396.84;5351911;26;1287;-54
2024/04/14 01:25:09;;;;;;;;;;;;;;;17.55;48.00;101396.19;5353214;26;1192;-51
2024/04/14 01:27:35;;;;;;;;;;;;;;;17.03;47.92;101394.97;5352011;26;1121;-54
2024/04/14 01:30:05;;;;;;;;;;;;;;;16.85;47.02;101403.56;5352136;26;1247;-54
2024/04/14 01:32:34;;;;;;;;;;;;;;;16.69;46.40;101386.09;5352304;26;1201;-52
2024/04/14 01:35:00;;;;;;;;;;;;;;;17.26;46.90;101392.94;5352091;26;1088;-53
2024/04/14 01:37:25;;;;;;;;;;;;;;;17.48;47.78;101394.78;5351792;26;1822;-54
2024/04/14 01:39:50;;;;;;;;;;;;;;;16.96;47.63;101399.00;5352553;26;1314;-52
2024/04/14 01:42:16;;;;;;;;;;;;;;;17.27;47.56;101389.13;5351509;26;1157;-54
2024/04/14 01:44:41;;;;;;;;;;;;;;;17.32;47.81;101389.16;5351576;26;1268;-54
2024/04/14 01:47:08;;;;;;;;;;;;;;;16.90;47.74;101398.13;5355737;26;2661;-54
2024/04/14 01:49:33;;;;;;;;;;;;;;;16.77;46.83;101391.97;5351742;26;1124;-56
2024/04/14 01:51:59;;;;;;;;;;;;;;;18.07;46.80;101391.81;5351754;26;1258;-53
2024/04/14 01:54:24;;;;;;;;;;;;;;;17.24;47.76;101381.41;5351542;26;1172;-53
2024/04/14 01:56:50;;;;;;;;;;;;;;;16.96;47.35;101380.63;5351905;26;1197;-55
2024/04/14 01:59:15;;;;;;;;;;;;;;;16.84;46.71;101386.25;5351917;26;1913;-57
2024/04/14 02:01:41;;;;;;;;;;;;;;;17.87;46.81;101380.69;5351996;26;1266;-53
2024/04/14 02:04:06;;;;;;;;;;;;;;;17.05;47.88;101376.28;5351993;26;1137;-54
2024/04/14 02:06:32;;;;;;;;;;;;;;;16.88;47.09;101375.56;5352446;26;1285;-54
2024/04/14 02:08:57;;;;;;;;;;;;;;;16.73;46.41;101379.84;5352068;26;1227;-56
2024/04/14 02:11:23;;;;;;;;;;;;;;;16.63;45.90;101376.97;5351483;26;1056;-52
2024/04/14 02:13:48;;;;;;;;;;;;;;;17.12;46.43;101378.00;5351364;26;1254;-53
2024/04/14 02:16:14;;;;;;;;;;;;;;;17.43;47.40;101368.03;5352269;26;2814;-54
2024/04/14 02:18:40;;;;;;;;;;;;;;;16.96;47.30;101371.53;5366938;26;1818;-57
2024/04/14 02:21:05;;;;;;;;;;;;;;;16.75;46.81;101374.91;5351405;26;1125;-55
2024/04/14 02:23:31;;;;;;;;;;;;;;;16.56;46.33;101373.59;5350999;26;1066;-52
2024/04/14 02:25:59;;;;;;;;;;;;;;;17.73;46.82;101370.16;5351603;26;1248;-54
2024/04/14 02:28:24;;;;;;;;;;;;;;;17.03;47.87;101386.72;5351568;26;1192;-52
2024/04/14 02:30:50;;;;;;;;;;;;;;;16.73;47.29;101389.97;5351039;26;1252;-54
2024/04/14 02:33:15;;;;;;;;;;;;;;;16.73;46.52;101393.56;5351616;26;1299;-54
2024/04/14 02:35:41;;;;;;;;;;;;;;;17.03;46.78;101389.47;5350564;26;1479;-52
2024/04/14 02:38:06;;;;;;;;;;;;;;;17.39;47.37;101387.00;5351130;26;1873;-54
2024/04/14 02:40:32;;;;;;;;;;;;;;;16.82;47.43;101398.59;5351528;26;1092;-53
2024/04/14 02:42:57;;;;;;;;;;;;;;;16.76;46.49;101395.78;5351417;26;1121;-52
2024/04/14 02:45:23;;;;;;;;;;;;;;;17.68;46.85;101403.13;5351271;26;1282;-55
2024/04/14 02:47:48;;;;;;;;;;;;;;;17.10;47.55;101403.81;5351009;26;2632;-53
2024/04/14 02:50:14;;;;;;;;;;;;;;;16.86;47.13;101386.00;5351442;26;1195;-52
2024/04/14 02:52:39;;;;;;;;;;;;;;;16.73;46.89;101385.34;5350994;26;1266;-52
2024/04/14 02:55:05;;;;;;;;;;;;;;;17.55;47.12;101392.59;5351799;26;1175;-54
2024/04/14 02:57:31;;;;;;;;;;;;;;;16.99;47.30;101393.81;5351343;26;1821;-54
2024/04/14 02:59:56;;;;;;;;;;;;;;;16.72;46.89;101400.16;5350727;26;1301;-53
2024/04/14 03:02:22;;;;;;;;;;;;;;;16.67;46.22;101397.34;5351611;26;1157;-53
2024/04/14 03:04:48;;;;;;;;;;;;;;;17.90;46.51;101396.66;5351070;26;1500;-54
2024/04/14 03:07:13;;;;;;;;;;;;;;;16.99;47.77;101399.31;5351271;26;1144;-52
2024/04/14 03:09:39;;;;;;;;;;;;;;;16.77;47.28;101397.47;5350772;26;1176;-52
2024/04/14 03:12:04;;;;;;;;;;;;;;;16.96;47.29;101399.00;5350800;26;1244;-56
2024/04/14 03:14:30;;;;;;;;;;;;;;;17.38;47.50;101401.84;5350729;26;1209;-55
2024/04/14 03:16:55;;;;;;;;;;;;;;;16.95;47.23;101413.84;5350074;26;2733;-54
2024/04/14 03:19:21;;;;;;;;;;;;;;;18.28;46.74;101411.97;5350827;26;1826;-57
2024/04/14 03:21:48;;;;;;;;;;;;;;;17.26;48.23;101407.53;5350509;26;1361;-57
2024/04/14 03:24:14;;;;;;;;;;;;;;;17.08;47.84;101403.25;5350938;26;1288;-57
2024/04/14 03:26:39;;;;;;;;;;;;;;;17.74;47.79;101406.72;5349992;26;1203;-57
2024/04/14 03:29:05;;;;;;;;;;;;;;;17.16;47.81;101412.94;5341163;26;2860;-56
2024/04/14 03:31:30;;;;;;;;;;;;;;;17.01;47.26;101421.03;5350696;26;2345;-57
2024/04/14 03:33:56;;;;;;;;;;;;;;;16.86;46.54;101416.22;5351852;26;1316;-58
2024/04/14 03:36:24;;;;;;;;;;;;;;;16.80;46.54;101422.72;5351774;26;1283;-58
2024/04/14 03:38:49;;;;;;;;;;;;;;;17.42;47.37;101429.66;5351401;26;1833;-57
2024/04/14 03:41:15;;;;;;;;;;;;;;;16.98;47.34;101429.81;5351501;26;1197;-56
2024/04/14 03:43:42;;;;;;;;;;;;;;;16.77;46.80;101424.91;5350808;26;1237;-53
2024/04/14 03:46:08;;;;;;;;;;;;;;;16.75;46.16;101426.25;5350859;26;1363;-55
2024/04/14 03:48:34;;;;;;;;;;;;;;;17.58;46.72;101422.31;5350229;26;1192;-55
2024/04/14 03:50:59;;;;;;;;;;;;;;;16.98;47.30;101429.81;5350807;26;1339;-54
2024/04/14 03:53:25;;;;;;;;;;;;;;;16.88;46.51;101430.50;5351004;26;1183;-54
2024/04/14 03:55:50;;;;;;;;;;;;;;;16.99;47.06;101424.06;5351331;26;1303;-55
2024/04/14 03:58:16;;;;;;;;;;;;;;;17.51;47.55;101432.72;5350072;26;1872;-56
2024/04/14 04:00:43;;;;;;;;;;;;;;;16.88;47.85;101439.59;5350381;26;1180;-56
2024/04/14 04:03:09;;;;;;;;;;;;;;;16.81;47.14;101429.88;5347965;26;1125;-56
2024/04/14 04:05:35;;;;;;;;;;;;;;;17.33;46.73;101437.53;5350080;26;1176;-57
2024/04/14 04:08:02;;;;;;;;;;;;;;;17.71;46.18;101438.38;5350464;26;1290;-55
2024/04/14 04:10:27;;;;;;;;;;;;;;;17.21;47.60;101437.72;5350104;26;1200;-53
2024/04/14 04:12:52;;;;;;;;;;;;;;;17.03;47.99;101438.94;5350899;26;1168;-56
2024/04/14 04:15:18;;;;;;;;;;;;;;;16.90;48.45;101439.34;5351148;26;1169;-55
2024/04/14 04:17:43;;;;;;;;;;;;;;;16.67;48.90;101441.28;5351206;26;1869;-53
2024/04/14 04:20:10;;;;;;;;;;;;;;;16.61;49.34;101436.81;5350470;26;1213;-56
2024/04/14 04:22:36;;;;;;;;;;;;;;;16.47;49.60;101435.56;5350115;26;1205;-56
2024/04/14 04:25:01;;;;;;;;;;;;;;;16.36;50.08;101448.34;5350781;26;1375;-54
2024/04/14 04:27:27;;;;;;;;;;;;;;;16.14;50.67;101440.91;5349958;26;1117;-53
2024/04/14 04:29:53;;;;;;;;;;;;;;;16.19;50.54;101446.47;5350638;26;1168;-54
2024/04/14 04:32:18;;;;;;;;;;;;;;;16.08;50.87;101445.50;5350511;26;1184;-54
2024/04/14 04:34:44;;;;;;;;;;;;;;;16.05;51.06;101447.94;5349904;26;1349;-54
2024/04/14 04:37:09;;;;;;;;;;;;;;;15.99;51.24;101446.19;5350097;26;1876;-54
2024/04/14 04:39:35;;;;;;;;;;;;;;;16.02;51.21;101445.69;5350415;26;1195;-55
2024/04/14 04:42:00;;;;;;;;;;;;;;;17.54;47.48;101444.00;5350300;26;1234;-52
2024/04/14 04:44:26;;;;;;;;;;;;;;;16.84;49.31;101445.84;5350504;26;1208;-56
2024/04/14 04:46:51;;;;;;;;;;;;;;;16.50;50.25;101454.28;5350219;26;1241;-49
2024/04/14 04:49:17;;;;;;;;;;;;;;;16.23;50.96;101455.88;5349761;26;1232;-54
2024/04/14 04:51:42;;;;;;;;;;;;;;;16.21;50.99;101449.78;5350158;26;1244;-55
2024/04/14 04:54:08;;;;;;;;;;;;;;;16.03;51.52;101458.31;5348918;26;1168;-54
2024/04/14 04:56:33;;;;;;;;;;;;;;;16.32;51.08;101456.25;5349277;26;1205;-53
2024/04/14 04:58:59;;;;;;;;;;;;;;;17.79;47.46;101450.78;5349611;26;1827;-56
2024/04/14 05:01:24;;;;;;;;;;;;;;;16.95;49.50;101444.88;5350032;26;1180;-54
2024/04/14 05:03:50;;;;;;;;;;;;;;;16.59;50.34;101449.97;5349806;26;1121;-54
2024/04/14 05:06:16;;;;;;;;;;;;;;;16.34;51.09;101455.97;5349892;26;1315;-52
2024/04/14 05:08:41;;;;;;;;;;;;;;;16.24;51.33;101456.69;5349595;26;1169;-51
2024/04/14 05:11:07;;;;;;;;;;;;;;;16.15;51.44;101463.72;5349116;26;1263;-55
2024/04/14 05:13:33;;;;;;;;;;;;;;;16.80;50.22;101455.69;5350021;26;1373;-55
2024/04/14 05:15:58;;;;;;;;;;;;;;;17.58;48.00;101452.56;5349947;26;1390;-55
2024/04/14 05:18:24;;;;;;;;;;;;;;;16.81;50.06;101454.63;5349374;26;1845;-52
2024/04/14 05:20:49;;;;;;;;;;;;;;;16.53;50.80;101456.50;5349282;26;1196;-53
2024/04/14 05:23:15;;;;;;;;;;;;;;;16.44;51.07;101453.38;5349479;26;1251;-51
2024/04/14 05:25:40;;;;;;;;;;;;;;;16.19;51.61;101451.16;5349650;26;1171;-56
2024/04/14 05:28:06;;;;;;;;;;;;;;;16.16;51.76;101452.47;5349742;26;1294;-55
2024/04/14 05:30:31;;;;;;;;;;;;;;;17.68;48.22;101452.63;5349261;26;1306;-52
2024/04/14 05:32:57;;;;;;;;;;;;;;;17.08;49.54;101449.97;5349681;26;1280;-53
2024/04/14 05:35:22;;;;;;;;;;;;;;;16.71;50.48;101460.81;5349133;26;1418;-56
2024/04/14 05:37:48;;;;;;;;;;;;;;;16.47;51.19;101458.34;5349386;26;1861;-56
2024/04/14 05:40:14;;;;;;;;;;;;;;;16.29;51.55;101461.44;5349235;26;1176;-56
2024/04/14 05:42:39;;;;;;;;;;;;;;;16.20;51.90;101463.75;5349414;26;1370;-56
2024/04/14 05:45:08;;;;;;;;;;;;;;;16.11;52.03;101457.88;5349386;26;1413;-56
2024/04/14 05:47:34;;;;;;;;;;;;;;;16.04;52.16;101458.06;5348642;26;1238;-56
2024/04/14 05:49:59;;;;;;;;;;;;;;;16.63;51.08;101453.84;5349089;26;1310;-56
2024/04/14 05:52:25;;;;;;;;;;;;;;;17.82;47.92;101460.44;5349243;26;1259;-55
2024/04/14 05:54:50;;;;;;;;;;;;;;;16.93;50.33;101450.66;5349113;26;1287;-55
2024/04/14 05:57:16;;;;;;;;;;;;;;;16.61;50.85;101450.56;5349202;26;1830;-53
2024/04/14 05:59:44;;;;;;;;;;;;;;;16.38;51.73;101454.38;5349333;26;1611;-53
2024/04/14 06:02:09;;;;;;;;;;;;;;;16.24;52.07;101448.44;5348627;26;1281;-56
2024/04/14 06:04:35;;;;;;;;;;;;;;;16.17;52.21;101453.31;5349051;26;1191;-54
2024/04/14 06:07:00;;;;;;;;;;;;;;;16.11;52.35;101443.34;5351585;26;1224;-53
2024/04/14 06:09:26;;;;;;;;;;;;;;;16.91;50.70;101441.00;5352451;26;1264;-50
2024/04/14 06:11:51;;;;;;;;;;;;;;;17.79;48.33;101440.63;5351838;26;1093;-52
2024/04/14 06:14:17;;;;;;;;;;;;;;;16.91;50.57;101432.75;5358809;26;3055;-51
2024/04/14 06:16:42;;;;;;;;;;;;;;;16.64;51.30;101441.78;5351445;26;2629;-50
2024/04/14 06:19:08;;;;;;;;;;;;;;;16.47;51.78;101438.31;5351771;26;2245;-52
2024/04/14 06:21:33;;;;;;;;;;;;;;;16.32;52.17;101437.03;5351344;26;2366;-52
2024/04/14 06:23:59;;;;;;;;;;;;;;;16.19;52.34;101440.16;5350806;26;2297;-52
2024/04/14 06:26:24;;;;;;;;;;;;;;;16.22;52.40;101445.16;5351141;26;2281;-52
2024/04/14 06:28:51;;;;;;;;;;;;;;;16.08;52.84;101445.50;5351602;26;1295;-52
2024/04/14 06:31:16;;;;;;;;;;;;;;;17.49;49.65;101446.75;5351198;26;1105;-55
2024/04/14 06:33:42;;;;;;;;;;;;;;;17.43;49.50;101445.03;5351970;26;1164;-53
2024/04/14 06:36:07;;;;;;;;;;;;;;;16.84;50.97;101441.16;5351277;26;1128;-50
2024/04/14 06:38:33;;;;;;;;;;;;;;;16.57;51.82;101442.00;5349684;26;1829;-56
2024/04/14 06:40:58;;;;;;;;;;;;;;;16.45;52.14;101451.44;5351666;26;1161;-53
2024/04/14 06:43:24;;;;;;;;;;;;;;;16.33;52.38;101449.66;5351180;26;1108;-55
2024/04/14 06:45:53;;;;;;;;;;;;;;;16.21;52.63;101444.28;5351411;26;1168;-56
2024/04/14 06:48:19;;;;;;;;;;;;;;;16.16;52.84;101440.66;5350847;26;1227;-54
2024/04/14 06:50:45;;;;;;;;;;;;;;;16.11;52.95;101443.34;5351552;26;1247;-53
2024/04/14 06:53:10;;;;;;;;;;;;;;;16.87;51.35;101439.81;5350869;26;1171;-53
2024/04/14 06:55:36;;;;;;;;;;;;;;;17.82;48.96;101443.94;5351055;26;2258;-50
2024/04/14 06:58:01;;;;;;;;;;;;;;;16.99;50.88;101436.97;5351160;26;1857;-50
2024/04/14 07:00:27;;;;;;;;;;;;;;;16.70;51.56;101439.94;5350896;26;1191;-52
2024/04/14 07:02:52;;;;;;;;;;;;;;;16.53;52.15;101451.00;5350751;26;1327;-51
2024/04/14 07:05:18;;;;;;;;;;;;;;;16.36;52.69;101445.59;5351208;26;1251;-53
2024/04/14 07:07:44;;;;;;;;;;;;;;;16.29;52.67;101439.47;5351023;26;1248;-52
2024/04/14 07:10:09;;;;;;;;;;;;;;;16.24;52.92;101442.97;5351025;26;1358;-50
2024/04/14 07:12:35;;;;;;;;;;;;;;;16.09;53.22;101435.38;5350408;26;1378;-52
2024/04/14 07:15:00;;;;;;;;;;;;;;;16.60;52.33;101435.97;5351145;26;1140;-54
2024/04/14 07:17:26;;;;;;;;;;;;;;;17.88;49.04;101437.34;5349213;26;1854;-55
2024/04/14 07:19:51;;;;;;;;;;;;;;;17.03;50.83;101447.16;5320559;26;1378;-51
2024/04/14 07:22:17;;;;;;;;;;;;;;;16.68;52.00;101439.38;5351147;26;1230;-51
2024/04/14 07:24:43;;;;;;;;;;;;;;;16.56;52.38;101445.00;5350013;26;1036;-53
2024/04/14 07:27:09;;;;;;;;;;;;;;;16.44;52.70;101431.41;5341485;26;2285;-52
2024/04/14 07:29:34;;;;;;;;;;;;;;;16.29;53.04;101434.81;5350736;26;1156;-54
2024/04/14 07:32:00;;;;;;;;;;;;;;;16.19;53.28;101434.69;5350364;26;1168;-49
2024/04/14 07:34:25;;;;;;;;;;;;;;;16.52;52.86;101427.38;5351353;26;1277;-52
2024/04/14 07:36:51;;;;;;;;;;;;;;;17.78;49.52;101421.63;5351422;26;1620;-55
2024/04/14 07:39:16;;;;;;;;;;;;;;;16.99;51.39;101426.78;5350715;26;1876;-53
2024/04/14 07:41:42;;;;;;;;;;;;;;;16.68;52.27;101426.47;5350545;26;1105;-56
2024/04/14 07:44:07;;;;;;;;;;;;;;;16.47;52.65;101430.91;5350494;26;1142;-53
2024/04/14 07:46:33;;;;;;;;;;;;;;;16.40;53.00;101431.09;5350375;26;1323;-53
2024/04/14 07:48:58;;;;;;;;;;;;;;;16.25;53.29;101423.50;5350189;26;1084;-54
2024/04/14 07:51:24;;;;;;;;;;;;;;;16.20;53.45;101431.69;5350452;26;1231;-53
2024/04/14 07:53:51;;;;;;;;;;;;;;;16.16;53.38;101424.19;5350334;26;1256;-54
2024/04/14 07:56:16;;;;;;;;;;;;;;;16.22;53.49;101435.00;5350484;26;2793;-54
2024/04/14 07:58:42;;;;;;;;;;;;;;;17.68;50.09;101440.81;5350287;26;1818;-57
2024/04/14 08:01:07;;;;;;;;;;;;;;;17.21;50.97;101434.16;5350051;26;1171;-57
2024/04/14 08:03:33;;;;;;;;;;;;;;;16.81;52.00;101441.69;5350379;26;1251;-57
2024/04/14 08:05:58;;;;;;;;;;;;;;;16.56;52.78;101445.00;5350501;26;1154;-57
2024/04/14 08:08:24;;;;;;;;;;;;;;;16.41;53.09;101440.16;5350224;26;1273;-55
2024/04/14 08:10:49;;;;;;;;;;;;;;;16.38;53.21;101441.50;5349952;26;1454;-53
2024/04/14 08:13:15;;;;;;;;;;;;;;;16.26;53.55;101435.31;5349983;26;1062;-56
2024/04/14 08:15:40;;;;;;;;;;;;;;;16.19;53.47;101442.91;5350275;26;1177;-55
2024/04/14 08:18:06;;;;;;;;;;;;;;;16.15;53.64;101437.09;5350066;26;1853;-56
2024/04/14 08:20:32;;;;;;;;;;;;;;;17.17;51.48;101441.25;5349980;26;1565;-55
2024/04/14 08:22:57;;;;;;;;;;;;;;;17.53;50.27;101436.88;5350652;26;1125;-56
2024/04/14 08:25:23;;;;;;;;;;;;;;;16.85;52.25;101436.53;5349142;26;1239;-53
2024/04/14 08:27:48;;;;;;;;;;;;;;;16.67;52.70;101434.97;5350131;26;2993;-55
2024/04/14 08:30:14;;;;;;;;;;;;;;;16.58;53.05;101431.84;5349483;26;1207;-56
2024/04/14 08:32:40;;;;;;;;;;;;;;;16.38;53.46;101425.03;5350053;26;1156;-54
2024/04/14 08:35:05;;;;;;;;;;;;;;;16.27;53.63;101436.13;5349898;26;1263;-54
2024/04/14 08:37:31;;;;;;;;;;;;;;;16.27;53.72;101436.13;5349435;26;1916;-56
2024/04/14 08:39:56;;;;;;;;;;;;;;;16.19;53.81;101440.16;5349679;26;1121;-56
2024/04/14 08:42:22;;;;;;;;;;;;;;;16.09;53.96;101432.63;5349812;26;1131;-55
2024/04/14 08:44:48;;;;;;;;;;;;;;;16.71;52.88;101428.69;5349446;26;1170;-57
2024/04/14 08:47:16;;;;;;;;;;;;;;;17.79;49.98;101428.78;5349345;26;1141;-55
2024/04/14 08:49:41;;;;;;;;;;;;;;;17.06;51.71;101435.66;5349702;26;1176;-56
2024/04/14 08:52:07;;;;;;;;;;;;;;;16.75;52.96;101432.56;5319137;26;1148;-54
2024/04/14 08:54:32;;;;;;;;;;;;;;;16.50;53.43;101429.56;5319231;26;1169;-54
2024/04/14 08:57:00;;;;;;;;;;;;;;;16.45;53.65;101421.25;5349244;26;2703;-52
2024/04/14 08:59:26;;;;;;;;;;;;;;;16.38;53.66;101430.53;5313308;27;1856;-55
2024/04/14 09:01:51;;;;;;;;;;;;;;;16.29;53.91;101429.31;5346133;26;1113;-52
2024/04/14 09:04:17;;;;;;;;;;;;;;;16.24;53.77;101427.34;5319122;26;1148;-51
2024/04/14 09:06:42;;;;;;;;;;;;;;;16.17;54.11;101423.13;5333228;26;1255;-55
2024/04/14 09:09:08;;;;;;;;;;;;;;;16.72;53.15;101416.63;5319574;26;1272;-55
2024/04/14 09:11:34;;;;;;;;;;;;;;;17.62;50.57;101431.69;5318964;26;1538;-53
2024/04/14 09:13:59;;;;;;;;;;;;;;;16.89;52.40;101413.78;5349042;26;1016;-49
2024/04/14 09:16:25;;;;;;;;;;;;;;;16.68;52.91;101415.47;5349079;26;1168;-53
2024/04/14 09:18:52;;;;;;;;;;;;;;;16.56;53.34;101423.03;5349153;26;1825;-53
2024/04/14 09:21:17;;;;;;;;;;;;;;;16.46;53.75;101425.66;5349529;26;1272;-52
2024/04/14 09:23:43;;;;;;;;;;;;;;;16.25;54.07;101417.19;5349161;26;1282;-55
2024/04/14 09:26:08;;;;;;;;;;;;;;;16.28;54.04;101421.34;5348593;26;2608;-53
2024/04/14 09:28:34;;;;;;;;;;;;;;;16.15;54.22;101423.38;5348934;26;1366;-49
2024/04/14 09:31:00;;;;;;;;;;;;;;;16.13;54.23;101413.72;5348965;26;1251;-51
2024/04/14 09:33:25;;;;;;;;;;;;;;;16.16;54.19;101419.56;5348813;26;1241;-51
2024/04/14 09:35:51;;;;;;;;;;;;;;;17.60;50.89;101407.22;5349020;26;1267;-55
2024/04/14 09:38:17;;;;;;;;;;;;;;;17.36;51.27;101415.03;5346806;26;1833;-54
2024/04/14 09:40:42;;;;;;;;;;;;;;;16.79;52.84;101410.06;5349468;26;1262;-55
2024/04/14 09:43:08;;;;;;;;;;;;;;;16.62;53.24;101405.53;5352412;26;1289;-55
2024/04/14 09:45:33;;;;;;;;;;;;;;;16.52;53.68;101399.94;5352002;26;1112;-56
2024/04/14 09:47:59;;;;;;;;;;;;;;;16.41;53.92;101402.56;5352029;26;1197;-56
2024/04/14 09:50:25;;;;;;;;;;;;;;;16.30;54.00;101387.06;5321143;26;1046;-55
2024/04/14 09:52:52;;;;;;;;;;;;;;;16.26;54.19;101394.16;5351863;26;1168;-53
2024/04/14 09:55:18;;;;;;;;;;;;;;;16.16;54.27;101394.00;5352395;26;1229;-54
2024/04/14 09:57:43;;;;;;;;;;;;;;;16.37;54.03;101398.69;5352334;26;2923;-52
2024/04/14 10:00:09;;;;;;;;;;;;;;;17.81;50.78;101396.34;5351624;26;1125;-51
2024/04/14 10:02:35;;;;;;;;;;;;;;;17.20;51.82;101394.81;5315658;26;1084;-51
2024/04/14 10:05:02;;;;;;;;;;;;;;;16.83;52.94;101390.09;5321558;26;1245;-54
2024/04/14 10:07:27;;;;;;;;;;;;;;;16.70;53.33;101402.31;5351499;26;1277;-56
2024/04/14 10:09:55;;;;;;;;;;;;;;;16.48;53.81;101394.13;5351631;26;1239;-55
2024/04/14 10:12:20;;;;;;;;;;;;;;;16.41;54.02;101397.06;5351200;26;1501;-49
2024/04/14 10:14:49;;;;;;;;;;;;;;;16.31;54.16;101394.19;5351691;26;1034;-54
2024/04/14 10:17:20;;;;;;;;;;;;;;;16.24;54.37;101388.94;5351595;26;1826;-53
2024/04/14 10:20:00;;;;;;;;;;;;;;;16.23;54.27;101389.19;5352656;26;1170;-53
2024/04/14 10:22:35;;;;;;;;;;;;;;;16.07;54.50;101388.16;5351711;26;1176;-49
2024/04/14 10:25:00;;;;;;;;;;;;;;;17.33;52.18;101387.22;5351526;26;1255;-54
2024/04/14 10:27:26;;;;;;;;;;;;;;;17.55;51.23;101376.94;5351330;26;2632;-55
2024/04/14 10:29:57;;;;;;;;;;;;;;;16.90;52.96;101379.75;5320446;26;1206;-55
2024/04/14 10:32:23;;;;;;;;;;;;;;;16.68;53.49;101381.72;5321091;26;1201;-55
2024/04/14 10:34:49;;;;;;;;;;;;;;;16.54;53.88;101371.13;5351595;26;1168;-56
2024/04/14 10:37:21;;;;;;;;;;;;;;;16.48;54.08;101374.06;5351239;26;1830;-56
2024/04/14 10:39:46;;;;;;;;;;;;;;;16.42;54.16;101376.78;5351678;26;1125;-50
2024/04/14 10:42:12;;;;;;;;;;;;;;;16.31;54.31;101366.75;5351352;26;1137;-45
2024/04/14 10:44:41;;;;;;;;;;;;;;;16.21;54.53;101367.47;5315337;27;1271;-49
2024/04/14 10:47:07;;;;;;;;;;;;;;;16.06;54.71;101359.91;5349437;26;1173;-51
2024/04/14 10:49:32;;;;;;;;;;;;;;;16.03;54.94;101362.31;5320745;26;1228;-49
2024/04/14 10:51:58;;;;;;;;;;;;;;;17.24;52.57;101362.16;5351627;26;1148;-51
2024/04/14 10:54:24;;;;;;;;;;;;;;;17.47;51.65;101357.34;5350745;26;1135;-49
2024/04/14 10:56:52;;;;;;;;;;;;;;;16.88;53.35;101364.59;5351886;26;2737;-50
2024/04/14 10:59:18;;;;;;;;;;;;;;;16.65;53.90;101361.09;5351152;26;1826;-52
2024/04/14 11:01:43;;;;;;;;;;;;;;;16.54;54.26;101357.41;5351778;26;1227;-50
2024/04/14 11:04:14;;;;;;;;;;;;;;;16.38;54.53;101353.69;5351159;26;1139;-50
2024/04/14 11:06:39;;;;;;;;;;;;;;;16.34;54.59;101365.41;5351246;26;1267;-53
2024/04/14 11:09:05;;;;;;;;;;;;;;;16.22;54.71;101354.59;5320971;26;1274;-50
2024/04/14 11:11:31;;;;;;;;;;;;;;;16.86;53.70;101355.78;5350329;26;1418;-50
2024/04/14 11:13:57;;;;;;;;;;;;;;;17.72;51.33;101356.69;5350837;26;1230;-51
2024/04/14 11:16:22;;;;;;;;;;;;;;;16.99;53.24;101351.81;5350917;26;1196;-52
2024/04/14 11:18:48;;;;;;;;;;;;;;;16.71;53.86;101349.03;5350679;26;1860;-55
2024/04/14 11:21:17;;;;;;;;;;;;;;;16.54;54.20;101351.09;5350348;26;1189;-54
2024/04/14 11:23:42;;;;;;;;;;;;;;;16.50;54.30;101349.94;5350883;26;1337;-53
2024/04/14 11:26:08;;;;;;;;;;;;;;;16.36;54.78;101347.59;5319757;26;2606;-55
2024/04/14 11:28:33;;;;;;;;;;;;;;;16.25;54.84;101337.59;5350809;26;1177;-51
2024/04/14 11:30:59;;;;;;;;;;;;;;;16.25;54.64;101330.19;5320310;26;1295;-56
2024/04/14 11:33:25;;;;;;;;;;;;;;;16.19;54.86;101322.19;5351497;26;1105;-51
2024/04/14 11:35:59;;;;;;;;;;;;;;;16.65;54.28;101325.38;5350479;26;1300;-53
2024/04/14 11:38:25;;;;;;;;;;;;;;;17.83;51.29;101313.56;5350231;26;1830;-53
2024/04/14 11:40:51;;;;;;;;;;;;;;;17.04;53.33;101316.94;5350701;26;1196;-51
2024/04/14 11:43:17;;;;;;;;;;;;;;;16.75;53.98;101311.75;5350668;26;1341;-48
2024/04/14 11:45:49;;;;;;;;;;;;;;;16.59;54.47;101310.78;5350675;26;1183;-49
2024/04/14 11:48:15;;;;;;;;;;;;;;;16.43;54.70;101309.78;5350811;26;1140;-48
2024/04/14 11:50:40;;;;;;;;;;;;;;;16.36;54.78;101306.44;5350600;26;979;-47
2024/04/14 11:53:06;;;;;;;;;;;;;;;16.28;54.75;101295.09;5350330;26;1124;-51
2024/04/14 11:55:31;;;;;;;;;;;;;;;16.25;54.81;101296.44;5350387;26;2692;-50
2024/04/14 11:57:57;;;;;;;;;;;;;;;16.20;55.00;101293.63;5350273;26;1850;-48
2024/04/14 12:00:23;;;;;;;;;;;;;;;17.20;53.17;101289.56;5350679;26;1236;-51
2024/04/14 12:02:48;;;;;;;;;;;;;;;17.51;52.31;101289.75;5349957;26;1115;-53
2024/04/14 12:05:18;;;;;;;;;;;;;;;16.89;53.86;101292.94;5349638;26;1271;-53
2024/04/14 12:07:44;;;;;;;;;;;;;;;16.58;54.65;101283.59;5350142;26;1168;-49
2024/04/14 12:10:10;;;;;;;;;;;;;;;16.53;54.66;101291.78;5350822;26;1169;-50
2024/04/14 12:12:35;;;;;;;;;;;;;;;16.44;54.78;101277.69;5349881;26;1415;-52
2024/04/14 12:15:03;;;;;;;;;;;;;;;16.37;54.86;101277.09;5349865;26;1049;-50
2024/04/14 12:17:29;;;;;;;;;;;;;;;16.31;54.90;101273.44;5350162;26;1829;-49
2024/04/14 12:19:54;;;;;;;;;;;;;;;16.18;55.15;101266.47;5350086;26;1252;-52
2024/04/14 12:22:21;;;;;;;;;;;;;;;16.97;53.85;101260.56;5350459;26;1176;-56
2024/04/14 12:24:46;;;;;;;;;;;;;;;17.74;51.72;101248.06;5350096;26;1176;-53
2024/04/14 12:27:12;;;;;;;;;;;;;;;17.02;53.50;101253.19;5349781;26;2802;-56
2024/04/14 12:29:37;;;;;;;;;;;;;;;16.73;54.33;101247.19;5350007;26;1335;-53
2024/04/14 12:32:03;;;;;;;;;;;;;;;16.61;54.53;101236.38;5349992;26;1303;-53
2024/04/14 12:34:29;;;;;;;;;;;;;;;16.53;54.49;101237.69;5349986;26;1109;-52
2024/04/14 12:36:54;;;;;;;;;;;;;;;16.32;54.89;101238.63;5349526;26;1121;-52
2024/04/14 12:39:20;;;;;;;;;;;;;;;16.35;54.87;101246.31;5349355;26;1822;-51